createdAt,value
2023-02-15T00:01:11.924Z,347.37
2023-02-15T00:06:14.423Z,307.73
2023-02-15T00:11:38.755Z,308.57
2023-02-15T00:16:43.258Z,305.07
2023-02-15T00:21:46.056Z,288.73
2023-02-15T00:26:50.331Z,267.67
2023-02-15T00:31:53.646Z,270.73
2023-02-15T00:36:56.283Z,345.97
2023-02-15T00:41:58.751Z,321.33
2023-02-15T00:47:01.113Z,312.17
2023-02-15T00:52:03.972Z,317.33
2023-02-15T00:57:06.428Z,329.20
2023-02-15T01:02:08.839Z,334.80
2023-02-15T01:07:11.248Z,361.87
2023-02-15T01:12:13.674Z,353.27
2023-02-15T01:17:16.083Z,358.03
2023-02-15T01:22:19.887Z,369.50
2023-02-15T01:27:22.293Z,369.17
2023-02-15T01:32:25.938Z,345.70
2023-02-15T01:37:28.498Z,345.83
2023-02-15T01:42:31.312Z,344.83
2023-02-15T01:47:43.687Z,350.53
2023-02-15T01:52:54.343Z,270.50
2023-02-15T01:57:56.923Z,266.13
2023-02-15T02:02:59.722Z,266.07
2023-02-15T02:08:03.332Z,299.33
2023-02-15T02:13:08.143Z,253.97
2023-02-15T02:18:31.000Z,252.87
2023-02-15T02:23:59.593Z,218.40
2023-02-15T02:29:34.238Z,239.67
2023-02-15T02:34:47.189Z,241.87
2023-02-15T02:40:06.525Z,240.77
2023-02-15T02:45:22.120Z,224.30
2023-02-15T02:50:30.174Z,217.87
2023-02-15T02:55:32.962Z,197.13
2023-02-15T03:00:53.552Z,170.23
2023-02-15T03:06:00.162Z,163.90
2023-02-15T03:11:04.226Z,167.33
2023-02-15T03:16:28.323Z,164.40
2023-02-15T03:22:10.108Z,150.57
2023-02-15T03:27:18.742Z,149.17
2023-02-15T03:32:23.440Z,148.00
2023-02-15T03:37:42.867Z,134.90
2023-02-15T03:42:47.275Z,123.50
2023-02-15T03:47:51.786Z,130.23
2023-02-15T03:52:56.497Z,132.60
2023-02-15T03:58:17.831Z,122.67
2023-02-15T04:03:42.217Z,135.63
2023-02-15T04:09:03.024Z,132.87
2023-02-15T04:14:25.470Z,115.60
2023-02-15T04:19:46.385Z,119.10
2023-02-15T04:25:07.303Z,112.57
2023-02-15T04:30:11.420Z,107.23
2023-02-15T04:35:14.499Z,293.27
2023-02-15T04:40:19.476Z,141.50
2023-02-15T04:45:22.417Z,124.10
2023-02-15T04:50:24.882Z,118.67
2023-02-15T04:55:27.957Z,114.43
2023-02-15T05:00:30.762Z,118.47
2023-02-15T05:05:33.285Z,157.13
2023-02-15T05:10:35.687Z,120.90
2023-02-15T05:15:38.043Z,123.63
2023-02-15T05:20:40.403Z,119.43
2023-02-15T05:26:05.612Z,118.27
2023-02-15T05:31:09.418Z,138.77
2023-02-15T05:36:12.707Z,121.93
2023-02-15T05:41:15.479Z,133.13
2023-02-15T05:46:17.936Z,176.50
2023-02-15T05:51:20.371Z,170.40
2023-02-15T05:56:22.988Z,153.73
2023-02-15T06:01:25.789Z,143.27
2023-02-15T06:06:28.182Z,153.40
2023-02-15T06:11:30.591Z,158.87
2023-02-15T06:16:33.063Z,173.77
2023-02-15T06:21:35.471Z,166.30
2023-02-15T06:26:37.839Z,143.73
2023-02-15T06:31:40.386Z,159.07
2023-02-15T06:36:43.012Z,146.27
2023-02-15T06:41:45.409Z,163.87
2023-02-15T06:46:47.875Z,157.37
2023-02-15T06:51:50.374Z,138.07
2023-02-15T06:56:52.798Z,136.73
2023-02-15T07:01:55.869Z,135.93
2023-02-15T07:06:58.482Z,138.63
2023-02-15T07:12:19.484Z,137.17
2023-02-15T07:17:35.352Z,159.93
2023-02-15T07:22:38.295Z,214.80
2023-02-15T07:27:41.275Z,203.03
2023-02-15T07:33:05.081Z,184.43
2023-02-15T07:38:08.019Z,159.47
2023-02-15T07:43:10.519Z,136.57
2023-02-15T07:48:13.017Z,135.97
2023-02-15T07:53:15.804Z,140.97
2023-02-15T07:58:18.223Z,118.93
2023-02-15T08:03:21.348Z,101.37
2023-02-15T08:08:32.975Z,94.27
2023-02-15T08:13:35.396Z,99.13
2023-02-15T08:18:37.939Z,106.37
2023-02-15T08:23:40.382Z,95.47
2023-02-15T08:28:42.995Z,102.47
2023-02-15T08:33:47.606Z,96.30
2023-02-15T08:38:51.593Z,93.67
2023-02-15T08:43:56.133Z,91.27
2023-02-15T08:48:58.909Z,95.53
2023-02-15T08:54:04.489Z,95.80
2023-02-15T08:59:08.322Z,102.63
2023-02-15T09:04:12.141Z,94.70
2023-02-15T09:09:15.209Z,89.80
2023-02-15T09:14:21.280Z,80.63
2023-02-15T09:19:24.753Z,84.30
2023-02-15T09:24:27.322Z,75.13
2023-02-15T09:29:30.085Z,82.80
2023-02-15T09:34:34.156Z,80.93
2023-02-15T09:39:40.516Z,74.03
2023-02-15T09:44:48.846Z,68.20
2023-02-15T09:50:03.302Z,70.70
2023-02-15T09:55:06.035Z,69.43
2023-02-15T10:00:20.787Z,66.70
2023-02-15T10:05:31.407Z,68.83
2023-02-15T10:10:42.399Z,63.40
2023-02-15T10:16:01.147Z,70.97
2023-02-15T10:21:41.944Z,71.23
2023-02-15T10:26:48.850Z,72.43
2023-02-15T10:32:11.014Z,66.17
2023-02-15T10:37:25.270Z,72.87
2023-02-15T10:42:55.752Z,68.03
2023-02-15T10:48:40.382Z,77.33
2023-02-15T10:54:09.496Z,70.23
2023-02-15T10:59:27.202Z,67.27
2023-02-15T11:04:51.110Z,69.17
2023-02-15T11:10:02.826Z,69.67
2023-02-15T11:15:32.591Z,75.33
2023-02-15T11:20:43.346Z,65.13
2023-02-15T11:25:58.068Z,71.43
2023-02-15T11:31:12.797Z,81.83
2023-02-15T11:36:29.948Z,72.10
2023-02-15T11:41:38.342Z,72.90
2023-02-15T11:46:40.892Z,73.53
2023-02-15T11:51:43.511Z,70.20
2023-02-15T11:56:46.508Z,69.57
2023-02-15T12:01:48.908Z,69.43
2023-02-15T12:07:23.819Z,69.83
2023-02-15T12:12:28.420Z,70.30
2023-02-15T12:17:53.611Z,74.23
2023-02-15T12:23:03.663Z,77.60
2023-02-15T12:28:23.554Z,77.10
2023-02-15T12:33:49.247Z,67.77
2023-02-15T12:39:12.678Z,71.60
2023-02-15T12:44:20.852Z,65.30
2023-02-15T12:49:23.431Z,70.87
2023-02-15T12:54:35.556Z,65.20
2023-02-15T12:59:38.854Z,68.57
2023-02-15T13:04:49.738Z,66.40
2023-02-15T13:09:55.090Z,70.07
2023-02-15T13:15:01.820Z,59.27
2023-02-15T13:20:22.980Z,65.40
2023-02-15T13:25:32.232Z,89.77
2023-02-15T13:30:43.343Z,82.90
2023-02-15T13:36:08.778Z,81.00
2023-02-15T13:41:19.578Z,68.37
2023-02-15T13:47:02.138Z,66.23
2023-02-15T13:52:24.323Z,65.57
2023-02-15T13:57:54.998Z,75.73
2023-02-15T14:03:33.773Z,70.70
2023-02-15T14:08:42.406Z,61.30
2023-02-15T14:13:56.977Z,59.17
2023-02-15T14:19:28.628Z,63.87
2023-02-15T14:24:53.730Z,65.50
2023-02-15T14:30:02.538Z,70.27
2023-02-15T14:35:13.643Z,68.47
2023-02-15T14:41:05.077Z,115.57
2023-02-15T14:46:46.050Z,79.27
2023-02-15T14:51:48.397Z,83.37
2023-02-15T14:57:03.473Z,76.63
2023-02-15T15:02:08.966Z,136.20
2023-02-15T15:07:23.842Z,111.80
2023-02-15T15:12:26.178Z,118.10
2023-02-15T15:17:34.979Z,148.07
2023-02-15T15:22:40.573Z,144.57
2023-02-15T15:27:52.874Z,135.53
2023-02-15T15:32:55.335Z,116.57
2023-02-15T15:38:19.868Z,147.73
2023-02-15T15:43:28.986Z,174.23
2023-02-15T15:48:39.127Z,156.27
2023-02-15T15:53:49.937Z,493.93
2023-02-15T15:58:59.840Z,592.47
2023-02-15T16:04:02.314Z,462.27
2023-02-15T16:09:16.884Z,244.93
2023-02-15T16:14:33.497Z,177.03
2023-02-15T16:19:45.648Z,197.63
2023-02-15T16:25:02.833Z,203.30
2023-02-15T16:30:36.657Z,264.43
2023-02-15T16:35:58.106Z,235.07
2023-02-15T16:41:02.429Z,242.60
2023-02-15T16:46:08.572Z,262.77
2023-02-15T16:51:11.328Z,253.33
2023-02-15T16:56:13.984Z,266.50
2023-02-15T17:01:17.176Z,291.37
2023-02-15T17:06:26.878Z,290.73
2023-02-15T17:11:43.467Z,303.97
2023-02-15T17:16:51.948Z,314.93
2023-02-15T17:21:57.917Z,302.03
2023-02-15T17:27:11.322Z,315.93
2023-02-15T17:32:21.743Z,324.80
2023-02-15T17:37:39.555Z,336.20
2023-02-15T17:42:42.122Z,369.57
2023-02-15T17:47:46.470Z,351.57
2023-02-15T17:52:49.643Z,318.83
2023-02-15T17:57:52.258Z,351.33
2023-02-15T18:03:13.460Z,421.87
2023-02-15T18:08:37.299Z,402.60
2023-02-15T18:13:39.827Z,372.83
2023-02-15T18:18:43.715Z,364.10
2023-02-15T18:23:46.304Z,360.67
2023-02-15T18:28:49.763Z,341.30
2023-02-15T18:33:58.236Z,325.13
2023-02-15T18:39:05.747Z,346.50
2023-02-15T18:44:13.259Z,381.67
2023-02-15T18:49:15.696Z,397.93
2023-02-15T18:54:21.642Z,347.83
2023-02-15T18:59:25.710Z,316.27
2023-02-15T19:04:28.274Z,311.97
2023-02-15T19:09:30.984Z,352.23
2023-02-15T19:14:33.473Z,449.93
2023-02-15T19:19:35.948Z,553.87
2023-02-15T19:24:40.954Z,672.77
2023-02-15T19:29:43.817Z,579.07
2023-02-15T19:34:46.532Z,520.90
2023-02-15T19:39:50.108Z,406.33
2023-02-15T19:44:54.549Z,421.07
2023-02-15T19:50:01.323Z,391.80
2023-02-15T19:55:04.013Z,377.60
2023-02-15T20:00:22.434Z,355.33
2023-02-15T20:05:29.371Z,364.27
2023-02-15T20:10:32.212Z,389.87
2023-02-15T20:15:35.863Z,380.57
2023-02-15T20:20:53.277Z,372.80
2023-02-15T20:25:59.047Z,384.00
2023-02-15T20:31:02.305Z,382.47
2023-02-15T20:36:05.533Z,433.77
2023-02-15T20:41:33.699Z,416.17
2023-02-15T20:46:36.299Z,778.63
2023-02-15T20:51:40.786Z,485.63
2023-02-15T20:56:43.519Z,445.67
2023-02-15T21:01:46.196Z,552.13
2023-02-15T21:06:48.694Z,528.47
2023-02-15T21:11:53.064Z,527.27
2023-02-15T21:16:55.641Z,635.13
2023-02-15T21:21:59.804Z,694.13
2023-02-15T21:27:03.696Z,671.33
2023-02-15T21:32:06.763Z,628.40
2023-02-15T21:37:28.337Z,604.40
2023-02-15T21:42:59.942Z,565.80
2023-02-15T21:48:02.599Z,524.40
2023-02-15T21:53:06.750Z,566.20
2023-02-15T21:58:21.248Z,569.93
2023-02-15T22:03:25.604Z,534.83
2023-02-15T22:08:28.280Z,526.13
2023-02-15T22:13:33.962Z,536.23
2023-02-15T22:18:36.367Z,508.33
2023-02-15T22:23:39.446Z,535.77
2023-02-15T22:28:43.046Z,530.07
2023-02-15T22:33:45.652Z,583.07
2023-02-15T22:38:48.146Z,556.53
2023-02-15T22:43:50.678Z,582.40
2023-02-15T22:48:53.318Z,566.03
2023-02-15T22:53:55.810Z,593.07
2023-02-15T22:59:04.709Z,570.90
2023-02-15T23:04:07.284Z,590.30
2023-02-15T23:09:10.265Z,584.83
2023-02-15T23:14:34.764Z,594.00
2023-02-15T23:19:37.372Z,569.87
2023-02-15T23:24:40.633Z,591.60
2023-02-15T23:29:43.316Z,572.13
2023-02-15T23:34:46.052Z,550.43
2023-02-15T23:40:07.060Z,543.37
2023-02-15T23:45:21.994Z,529.80
2023-02-15T23:50:27.999Z,507.57
2023-02-15T23:55:39.724Z,498.53
